sensor_id;sensor_type;location;lat;lon;timestamp;temperature;humidity
51559;DHT22;61650;48.882;2.092;2022-12-18T00:01:33;-5.20;88.60
51559;DHT22;61650;48.882;2.092;2022-12-18T00:04:00;-5.20;88.70
51559;DHT22;61650;48.882;2.092;2022-12-18T00:06:28;-5.20;88.40
51559;DHT22;61650;48.882;2.092;2022-12-18T00:08:55;-5.20;88.20
51559;DHT22;61650;48.882;2.092;2022-12-18T00:11:24;-5.20;88.20
51559;DHT22;61650;48.882;2.092;2022-12-18T00:13:50;-5.30;87.90
51559;DHT22;61650;48.882;2.092;2022-12-18T00:16:19;-5.30;87.60
51559;DHT22;61650;48.882;2.092;2022-12-18T00:18:46;-5.30;87.80
51559;DHT22;61650;48.882;2.092;2022-12-18T00:21:13;-5.30;88.10
51559;DHT22;61650;48.882;2.092;2022-12-18T00:23:41;-5.40;86.50
51559;DHT22;61650;48.882;2.092;2022-12-18T00:26:11;-5.50;86.70
51559;DHT22;61650;48.882;2.092;2022-12-18T00:28:37;-5.60;86.50
51559;DHT22;61650;48.882;2.092;2022-12-18T00:31:06;-5.80;86.90
51559;DHT22;61650;48.882;2.092;2022-12-18T00:33:32;-5.90;87.00
51559;DHT22;61650;48.882;2.092;2022-12-18T00:36:09;-5.90;87.50
51559;DHT22;61650;48.882;2.092;2022-12-18T00:38:35;-5.90;87.40
51559;DHT22;61650;48.882;2.092;2022-12-18T00:41:01;-6.00;86.70
51559;DHT22;61650;48.882;2.092;2022-12-18T00:43:27;-6.20;87.10
51559;DHT22;61650;48.882;2.092;2022-12-18T00:45:53;-6.20;87.50
51559;DHT22;61650;48.882;2.092;2022-12-18T00:48:19;-6.30;87.50
51559;DHT22;61650;48.882;2.092;2022-12-18T00:50:44;-6.20;87.80
51559;DHT22;61650;48.882;2.092;2022-12-18T00:53:10;-6.20;87.20
51559;DHT22;61650;48.882;2.092;2022-12-18T00:55:39;-6.20;87.50
51559;DHT22;61650;48.882;2.092;2022-12-18T00:58:05;-6.20;87.60
51559;DHT22;61650;48.882;2.092;2022-12-18T01:00:30;-6.30;86.50
51559;DHT22;61650;48.882;2.092;2022-12-18T01:02:56;-6.40;86.40
51559;DHT22;61650;48.882;2.092;2022-12-18T01:05:22;-6.40;86.70
51559;DHT22;61650;48.882;2.092;2022-12-18T01:07:47;-6.50;86.20
51559;DHT22;61650;48.882;2.092;2022-12-18T01:10:13;-6.50;86.40
51559;DHT22;61650;48.882;2.092;2022-12-18T01:12:39;-6.50;86.40
51559;DHT22;61650;48.882;2.092;2022-12-18T01:15:07;-6.60;86.40
51559;DHT22;61650;48.882;2.092;2022-12-18T01:17:33;-6.60;86.00
51559;DHT22;61650;48.882;2.092;2022-12-18T01:19:59;-6.60;85.80
51559;DHT22;61650;48.882;2.092;2022-12-18T01:22:24;-6.70;85.90
51559;DHT22;61650;48.882;2.092;2022-12-18T01:24:50;-6.70;85.80
51559;DHT22;61650;48.882;2.092;2022-12-18T01:27:15;-6.70;86.10
51559;DHT22;61650;48.882;2.092;2022-12-18T01:29:41;-6.70;86.60
51559;DHT22;61650;48.882;2.092;2022-12-18T01:32:08;-6.70;85.70
51559;DHT22;61650;48.882;2.092;2022-12-18T01:34:35;-6.80;85.30
51559;DHT22;61650;48.882;2.092;2022-12-18T01:37:03;-6.80;86.30
51559;DHT22;61650;48.882;2.092;2022-12-18T01:39:29;-6.80;86.00
51559;DHT22;61650;48.882;2.092;2022-12-18T01:41:54;-6.90;85.50
51559;DHT22;61650;48.882;2.092;2022-12-18T01:45:04;-6.90;85.50
51559;DHT22;61650;48.882;2.092;2022-12-18T01:47:38;-6.90;86.00
51559;DHT22;61650;48.882;2.092;2022-12-18T01:50:09;-6.90;86.20
51559;DHT22;61650;48.882;2.092;2022-12-18T01:52:36;-7.00;85.50
51559;DHT22;61650;48.882;2.092;2022-12-18T01:55:05;-7.10;85.30
51559;DHT22;61650;48.882;2.092;2022-12-18T01:57:33;-7.10;86.40
51559;DHT22;61650;48.882;2.092;2022-12-18T02:00:07;-7.00;86.50
51559;DHT22;61650;48.882;2.092;2022-12-18T02:02:33;-7.00;86.30
51559;DHT22;61650;48.882;2.092;2022-12-18T02:04:59;-7.00;86.20
51559;DHT22;61650;48.882;2.092;2022-12-18T02:13:32;-7.10;85.50
51559;DHT22;61650;48.882;2.092;2022-12-18T02:16:09;-7.00;86.30
51559;DHT22;61650;48.882;2.092;2022-12-18T02:18:40;-7.00;85.90
51559;DHT22;61650;48.882;2.092;2022-12-18T02:21:19;-7.10;85.40
51559;DHT22;61650;48.882;2.092;2022-12-18T02:24:04;-7.10;85.80
51559;DHT22;61650;48.882;2.092;2022-12-18T02:26:41;-7.10;85.80
51559;DHT22;61650;48.882;2.092;2022-12-18T02:29:13;-7.10;86.30
51559;DHT22;61650;48.882;2.092;2022-12-18T02:31:46;-7.10;85.90
51559;DHT22;61650;48.882;2.092;2022-12-18T02:34:14;-7.20;86.30
51559;DHT22;61650;48.882;2.092;2022-12-18T02:36:41;-7.10;86.00
51559;DHT22;61650;48.882;2.092;2022-12-18T02:39:10;-7.30;86.20
51559;DHT22;61650;48.882;2.092;2022-12-18T02:41:36;-7.30;86.10
51559;DHT22;61650;48.882;2.092;2022-12-18T02:44:07;-7.20;86.90
51559;DHT22;61650;48.882;2.092;2022-12-18T02:46:40;-7.10;86.60
51559;DHT22;61650;48.882;2.092;2022-12-18T02:49:24;-7.10;87.10
51559;DHT22;61650;48.882;2.092;2022-12-18T02:52:15;-7.10;86.40
51559;DHT22;61650;48.882;2.092;2022-12-18T03:00:38;-7.00;87.10
51559;DHT22;61650;48.882;2.092;2022-12-18T03:03:15;-6.90;87.50
51559;DHT22;61650;48.882;2.092;2022-12-18T03:05:50;-6.90;86.60
51559;DHT22;61650;48.882;2.092;2022-12-18T03:08:26;-7.00;87.30
51559;DHT22;61650;48.882;2.092;2022-12-18T03:11:01;-7.00;86.90
51559;DHT22;61650;48.882;2.092;2022-12-18T03:13:48;-7.00;87.10
51559;DHT22;61650;48.882;2.092;2022-12-18T03:16:25;-6.90;87.20
51559;DHT22;61650;48.882;2.092;2022-12-18T03:18:56;-7.00;86.70
51559;DHT22;61650;48.882;2.092;2022-12-18T03:21:28;-7.10;86.30
51559;DHT22;61650;48.882;2.092;2022-12-18T03:23:55;-7.10;87.00
51559;DHT22;61650;48.882;2.092;2022-12-18T03:26:24;-7.00;87.00
51559;DHT22;61650;48.882;2.092;2022-12-18T03:29:02;-7.10;86.10
51559;DHT22;61650;48.882;2.092;2022-12-18T03:31:30;-7.10;85.50
51559;DHT22;61650;48.882;2.092;2022-12-18T03:34:04;-7.20;85.30
51559;DHT22;61650;48.882;2.092;2022-12-18T03:36:31;-7.20;85.20
51559;DHT22;61650;48.882;2.092;2022-12-18T03:38:57;-7.10;85.70
51559;DHT22;61650;48.882;2.092;2022-12-18T03:41:32;-7.20;85.30
51559;DHT22;61650;48.882;2.092;2022-12-18T03:46:55;-7.20;85.70
51559;DHT22;61650;48.882;2.092;2022-12-18T03:49:38;-7.20;85.70
51559;DHT22;61650;48.882;2.092;2022-12-18T03:52:15;-7.30;85.60
51559;DHT22;61650;48.882;2.092;2022-12-18T03:54:44;-7.30;85.50
51559;DHT22;61650;48.882;2.092;2022-12-18T03:57:15;-7.30;86.30
51559;DHT22;61650;48.882;2.092;2022-12-18T03:59:43;-7.10;86.50
51559;DHT22;61650;48.882;2.092;2022-12-18T04:02:11;-7.20;85.40
51559;DHT22;61650;48.882;2.092;2022-12-18T04:04:38;-7.20;85.90
51559;DHT22;61650;48.882;2.092;2022-12-18T04:07:05;-7.20;85.70
51559;DHT22;61650;48.882;2.092;2022-12-18T04:09:33;-7.20;85.60
51559;DHT22;61650;48.882;2.092;2022-12-18T04:11:59;-7.20;86.40
51559;DHT22;61650;48.882;2.092;2022-12-18T04:14:25;-7.10;86.70
51559;DHT22;61650;48.882;2.092;2022-12-18T04:16:50;-7.10;87.30
51559;DHT22;61650;48.882;2.092;2022-12-18T04:19:16;-6.90;87.10
51559;DHT22;61650;48.882;2.092;2022-12-18T04:21:42;-6.90;86.90
51559;DHT22;61650;48.882;2.092;2022-12-18T04:24:07;-6.90;87.20
51559;DHT22;61650;48.882;2.092;2022-12-18T04:26:33;-6.80;87.30
51559;DHT22;61650;48.882;2.092;2022-12-18T04:28:59;-6.70;87.00
51559;DHT22;61650;48.882;2.092;2022-12-18T04:31:25;-6.70;87.40
51559;DHT22;61650;48.882;2.092;2022-12-18T04:33:50;-6.70;86.60
51559;DHT22;61650;48.882;2.092;2022-12-18T04:36:16;-6.60;87.10
51559;DHT22;61650;48.882;2.092;2022-12-18T04:38:41;-6.70;87.10
51559;DHT22;61650;48.882;2.092;2022-12-18T04:41:07;-6.70;87.50
51559;DHT22;61650;48.882;2.092;2022-12-18T04:43:33;-6.60;86.70
51559;DHT22;61650;48.882;2.092;2022-12-18T04:46:06;-6.60;86.60
51559;DHT22;61650;48.882;2.092;2022-12-18T04:48:32;-6.60;86.40
51559;DHT22;61650;48.882;2.092;2022-12-18T04:50:58;-6.70;86.10
51559;DHT22;61650;48.882;2.092;2022-12-18T04:53:24;-6.70;86.70
51559;DHT22;61650;48.882;2.092;2022-12-18T04:55:49;-6.70;87.20
51559;DHT22;61650;48.882;2.092;2022-12-18T04:58:15;-6.80;86.40
51559;DHT22;61650;48.882;2.092;2022-12-18T05:00:41;-6.80;86.30
51559;DHT22;61650;48.882;2.092;2022-12-18T05:03:06;-6.80;86.30
51559;DHT22;61650;48.882;2.092;2022-12-18T05:05:34;-6.90;86.00
51559;DHT22;61650;48.882;2.092;2022-12-18T05:08:00;-6.80;86.10
51559;DHT22;61650;48.882;2.092;2022-12-18T05:10:26;-6.80;86.40
51559;DHT22;61650;48.882;2.092;2022-12-18T05:12:51;-6.90;85.50
51559;DHT22;61650;48.882;2.092;2022-12-18T05:15:30;-6.90;86.00
51559;DHT22;61650;48.882;2.092;2022-12-18T05:17:57;-6.90;85.80
51559;DHT22;61650;48.882;2.092;2022-12-18T05:20:23;-6.90;85.60
51559;DHT22;61650;48.882;2.092;2022-12-18T05:22:50;-7.00;85.50
51559;DHT22;61650;48.882;2.092;2022-12-18T05:25:15;-7.00;85.30
51559;DHT22;61650;48.882;2.092;2022-12-18T05:27:41;-7.10;85.10
51559;DHT22;61650;48.882;2.092;2022-12-18T05:30:07;-7.10;85.30
51559;DHT22;61650;48.882;2.092;2022-12-18T05:32:33;-7.10;85.70
51559;DHT22;61650;48.882;2.092;2022-12-18T05:34:59;-7.10;85.90
51559;DHT22;61650;48.882;2.092;2022-12-18T05:37:24;-7.00;85.90
51559;DHT22;61650;48.882;2.092;2022-12-18T05:39:50;-7.10;84.70
51559;DHT22;61650;48.882;2.092;2022-12-18T05:42:16;-7.20;85.10
51559;DHT22;61650;48.882;2.092;2022-12-18T05:44:41;-7.10;85.50
51559;DHT22;61650;48.882;2.092;2022-12-18T05:47:08;-7.10;85.70
51559;DHT22;61650;48.882;2.092;2022-12-18T05:49:33;-7.10;85.10
51559;DHT22;61650;48.882;2.092;2022-12-18T05:51:59;-7.00;86.10
51559;DHT22;61650;48.882;2.092;2022-12-18T05:54:27;-7.00;85.50
51559;DHT22;61650;48.882;2.092;2022-12-18T05:56:52;-7.00;85.80
51559;DHT22;61650;48.882;2.092;2022-12-18T05:59:19;-7.00;85.70
51559;DHT22;61650;48.882;2.092;2022-12-18T06:01:45;-7.00;85.50
51559;DHT22;61650;48.882;2.092;2022-12-18T06:04:11;-7.00;85.40
51559;DHT22;61650;48.882;2.092;2022-12-18T06:06:36;-7.00;85.60
51559;DHT22;61650;48.882;2.092;2022-12-18T06:09:03;-7.00;85.40
51559;DHT22;61650;48.882;2.092;2022-12-18T06:11:36;-6.90;85.80
51559;DHT22;61650;48.882;2.092;2022-12-18T06:14:03;-6.90;85.60
51559;DHT22;61650;48.882;2.092;2022-12-18T06:16:29;-7.00;85.60
51559;DHT22;61650;48.882;2.092;2022-12-18T06:18:56;-7.00;85.70
51559;DHT22;61650;48.882;2.092;2022-12-18T06:21:22;-7.00;86.20
51559;DHT22;61650;48.882;2.092;2022-12-18T06:23:48;-6.90;86.40
51559;DHT22;61650;48.882;2.092;2022-12-18T06:26:15;-6.80;86.20
51559;DHT22;61650;48.882;2.092;2022-12-18T06:28:41;-6.90;85.70
51559;DHT22;61650;48.882;2.092;2022-12-18T06:31:07;-6.80;86.30
51559;DHT22;61650;48.882;2.092;2022-12-18T06:33:33;-6.70;86.30
51559;DHT22;61650;48.882;2.092;2022-12-18T06:36:05;-6.70;86.00
51559;DHT22;61650;48.882;2.092;2022-12-18T06:38:32;-6.70;86.20
51559;DHT22;61650;48.882;2.092;2022-12-18T06:40:58;-6.70;85.60
51559;DHT22;61650;48.882;2.092;2022-12-18T06:43:24;-6.80;85.50
51559;DHT22;61650;48.882;2.092;2022-12-18T06:45:50;-6.90;85.60
51559;DHT22;61650;48.882;2.092;2022-12-18T06:48:19;-6.90;86.60
51559;DHT22;61650;48.882;2.092;2022-12-18T06:50:45;-6.80;86.70
51559;DHT22;61650;48.882;2.092;2022-12-18T06:53:11;-6.80;86.20
51559;DHT22;61650;48.882;2.092;2022-12-18T06:55:37;-6.70;86.70
51559;DHT22;61650;48.882;2.092;2022-12-18T06:58:02;-6.80;86.10
51559;DHT22;61650;48.882;2.092;2022-12-18T07:00:28;-6.70;86.50
51559;DHT22;61650;48.882;2.092;2022-12-18T07:02:54;-6.80;85.80
51559;DHT22;61650;48.882;2.092;2022-12-18T07:05:19;-6.90;85.70
51559;DHT22;61650;48.882;2.092;2022-12-18T07:07:45;-6.80;86.20
51559;DHT22;61650;48.882;2.092;2022-12-18T07:10:10;-6.80;86.00
51559;DHT22;61650;48.882;2.092;2022-12-18T07:12:36;-6.80;86.00
51559;DHT22;61650;48.882;2.092;2022-12-18T07:15:02;-6.80;86.10
51559;DHT22;61650;48.882;2.092;2022-12-18T07:17:28;-6.80;86.20
51559;DHT22;61650;48.882;2.092;2022-12-18T07:19:54;-6.70;86.70
51559;DHT22;61650;48.882;2.092;2022-12-18T07:22:20;-6.70;85.80
51559;DHT22;61650;48.882;2.092;2022-12-18T07:24:46;-6.70;86.10
51559;DHT22;61650;48.882;2.092;2022-12-18T07:27:11;-6.60;86.50
51559;DHT22;61650;48.882;2.092;2022-12-18T07:29:37;-6.70;86.30
51559;DHT22;61650;48.882;2.092;2022-12-18T07:32:02;-6.50;86.50
51559;DHT22;61650;48.882;2.092;2022-12-18T07:34:28;-6.50;86.50
51559;DHT22;61650;48.882;2.092;2022-12-18T07:36:54;-6.50;86.50
51559;DHT22;61650;48.882;2.092;2022-12-18T07:39:19;-6.50;86.30
51559;DHT22;61650;48.882;2.092;2022-12-18T07:41:45;-6.50;86.70
51559;DHT22;61650;48.882;2.092;2022-12-18T07:44:31;-6.40;87.20
51559;DHT22;61650;48.882;2.092;2022-12-18T07:46:56;-6.30;86.90
51559;DHT22;61650;48.882;2.092;2022-12-18T07:49:22;-6.30;86.80
51559;DHT22;61650;48.882;2.092;2022-12-18T07:51:47;-6.30;86.50
51559;DHT22;61650;48.882;2.092;2022-12-18T07:54:14;-6.30;86.40
51559;DHT22;61650;48.882;2.092;2022-12-18T07:56:40;-6.30;86.40
51559;DHT22;61650;48.882;2.092;2022-12-18T07:59:05;-6.10;86.90
51559;DHT22;61650;48.882;2.092;2022-12-18T08:01:31;-6.10;86.80
51559;DHT22;61650;48.882;2.092;2022-12-18T08:03:58;-6.10;86.50
51559;DHT22;61650;48.882;2.092;2022-12-18T08:06:24;-5.90;86.70
51559;DHT22;61650;48.882;2.092;2022-12-18T08:08:54;-5.90;86.50
51559;DHT22;61650;48.882;2.092;2022-12-18T08:11:20;-5.80;86.50
51559;DHT22;61650;48.882;2.092;2022-12-18T08:13:46;-5.80;85.90
51559;DHT22;61650;48.882;2.092;2022-12-18T08:16:11;-5.80;86.00
51559;DHT22;61650;48.882;2.092;2022-12-18T08:18:37;-5.70;85.80
51559;DHT22;61650;48.882;2.092;2022-12-18T08:21:21;-5.80;86.00
51559;DHT22;61650;48.882;2.092;2022-12-18T08:23:49;-5.60;85.90
51559;DHT22;61650;48.882;2.092;2022-12-18T08:26:15;-5.50;85.60
51559;DHT22;61650;48.882;2.092;2022-12-18T08:28:42;-5.40;86.10
51559;DHT22;61650;48.882;2.092;2022-12-18T08:31:08;-5.30;86.10
51559;DHT22;61650;48.882;2.092;2022-12-18T08:33:35;-5.30;85.10
51559;DHT22;61650;48.882;2.092;2022-12-18T08:36:03;-5.30;85.40
51559;DHT22;61650;48.882;2.092;2022-12-18T08:38:29;-5.20;84.70
51559;DHT22;61650;48.882;2.092;2022-12-18T08:41:15;-5.10;85.20
51559;DHT22;61650;48.882;2.092;2022-12-18T08:43:41;-5.00;85.70
51559;DHT22;61650;48.882;2.092;2022-12-18T08:46:27;-5.00;84.40
51559;DHT22;61650;48.882;2.092;2022-12-18T08:48:53;-5.10;84.60
51559;DHT22;61650;48.882;2.092;2022-12-18T08:51:20;-5.00;84.20
51559;DHT22;61650;48.882;2.092;2022-12-18T08:53:46;-4.90;84.10
51559;DHT22;61650;48.882;2.092;2022-12-18T08:56:12;-4.90;84.20
51559;DHT22;61650;48.882;2.092;2022-12-18T08:58:38;-4.80;84.50
51559;DHT22;61650;48.882;2.092;2022-12-18T09:01:06;-4.80;83.60
51559;DHT22;61650;48.882;2.092;2022-12-18T09:03:32;-4.80;84.10
51559;DHT22;61650;48.882;2.092;2022-12-18T09:05:58;-4.80;83.10
51559;DHT22;61650;48.882;2.092;2022-12-18T09:08:25;-4.70;84.30
51559;DHT22;61650;48.882;2.092;2022-12-18T09:10:51;-4.70;83.30
51559;DHT22;61650;48.882;2.092;2022-12-18T09:13:17;-4.60;83.70
51559;DHT22;61650;48.882;2.092;2022-12-18T09:15:48;-4.60;82.50
51559;DHT22;61650;48.882;2.092;2022-12-18T09:18:15;-4.50;83.10
51559;DHT22;61650;48.882;2.092;2022-12-18T09:20:42;-4.50;82.80
51559;DHT22;61650;48.882;2.092;2022-12-18T09:23:08;-4.40;83.30
51559;DHT22;61650;48.882;2.092;2022-12-18T09:25:35;-4.30;83.70
51559;DHT22;61650;48.882;2.092;2022-12-18T09:28:06;-4.20;84.30
51559;DHT22;61650;48.882;2.092;2022-12-18T09:30:37;-4.20;84.40
51559;DHT22;61650;48.882;2.092;2022-12-18T09:33:03;-4.20;82.80
51559;DHT22;61650;48.882;2.092;2022-12-18T09:35:29;-4.10;82.10
51559;DHT22;61650;48.882;2.092;2022-12-18T09:37:54;-4.10;80.70
51559;DHT22;61650;48.882;2.092;2022-12-18T09:40:23;-4.10;83.30
51559;DHT22;61650;48.882;2.092;2022-12-18T09:43:00;-4.00;84.00
51559;DHT22;61650;48.882;2.092;2022-12-18T09:45:31;-3.90;83.00
51559;DHT22;61650;48.882;2.092;2022-12-18T09:47:59;-3.90;82.10
51559;DHT22;61650;48.882;2.092;2022-12-18T09:50:37;-3.80;81.50
51559;DHT22;61650;48.882;2.092;2022-12-18T09:53:07;-3.80;80.70
51559;DHT22;61650;48.882;2.092;2022-12-18T09:55:40;-3.70;82.30
51559;DHT22;61650;48.882;2.092;2022-12-18T10:00:35;-3.60;81.20
51559;DHT22;61650;48.882;2.092;2022-12-18T10:03:10;-3.60;79.70
51559;DHT22;61650;48.882;2.092;2022-12-18T10:13:53;-3.40;79.30
51559;DHT22;61650;48.882;2.092;2022-12-18T10:16:25;-3.30;80.80
51559;DHT22;61650;48.882;2.092;2022-12-18T10:19:17;-3.30;79.10
51559;DHT22;61650;48.882;2.092;2022-12-18T10:24:16;-3.10;81.20
51559;DHT22;61650;48.882;2.092;2022-12-18T10:26:44;-3.10;79.70
51559;DHT22;61650;48.882;2.092;2022-12-18T10:29:12;-3.10;78.50
51559;DHT22;61650;48.882;2.092;2022-12-18T10:31:38;-3.00;80.60
51559;DHT22;61650;48.882;2.092;2022-12-18T10:34:04;-3.00;78.70
51559;DHT22;61650;48.882;2.092;2022-12-18T10:36:32;-2.90;78.80
51559;DHT22;61650;48.882;2.092;2022-12-18T10:39:18;-2.90;78.80
51559;DHT22;61650;48.882;2.092;2022-12-18T10:41:44;-2.80;82.30
51559;DHT22;61650;48.882;2.092;2022-12-18T10:44:14;-2.80;78.80
51559;DHT22;61650;48.882;2.092;2022-12-18T10:46:41;-2.90;75.90
51559;DHT22;61650;48.882;2.092;2022-12-18T10:49:36;-2.80;77.00
51559;DHT22;61650;48.882;2.092;2022-12-18T10:55:04;-2.60;78.00
51559;DHT22;61650;48.882;2.092;2022-12-18T10:57:33;-2.60;77.60
51559;DHT22;61650;48.882;2.092;2022-12-18T11:00:18;-2.50;79.00
51559;DHT22;61650;48.882;2.092;2022-12-18T11:02:45;-2.50;76.80
51559;DHT22;61650;48.882;2.092;2022-12-18T11:05:34;-2.50;78.50
51559;DHT22;61650;48.882;2.092;2022-12-18T11:08:02;-2.40;77.30
51559;DHT22;61650;48.882;2.092;2022-12-18T11:10:32;-2.30;76.50
51559;DHT22;61650;48.882;2.092;2022-12-18T11:13:15;-2.20;79.40
51559;DHT22;61650;48.882;2.092;2022-12-18T11:15:42;-2.20;80.10
51559;DHT22;61650;48.882;2.092;2022-12-18T11:20:42;-2.20;78.90
51559;DHT22;61650;48.882;2.092;2022-12-18T11:23:12;-2.20;78.90
51559;DHT22;61650;48.882;2.092;2022-12-18T11:25:39;-2.10;77.00
51559;DHT22;61650;48.882;2.092;2022-12-18T11:28:43;-2.00;78.60
51559;DHT22;61650;48.882;2.092;2022-12-18T11:36:39;-1.90;80.10
51559;DHT22;61650;48.882;2.092;2022-12-18T11:39:46;-1.90;79.20
51559;DHT22;61650;48.882;2.092;2022-12-18T11:44:58;-1.80;75.70
51559;DHT22;61650;48.882;2.092;2022-12-18T11:47:51;-1.70;78.40
51559;DHT22;61650;48.882;2.092;2022-12-18T11:52:45;-1.60;79.30
51559;DHT22;61650;48.882;2.092;2022-12-18T11:55:21;-1.70;74.20
51559;DHT22;61650;48.882;2.092;2022-12-18T12:00:43;-1.50;76.80
51559;DHT22;61650;48.882;2.092;2022-12-18T12:17:43;-1.20;75.00
51559;DHT22;61650;48.882;2.092;2022-12-18T12:23:28;-1.10;76.10
51559;DHT22;61650;48.882;2.092;2022-12-18T12:26:10;-1.10;75.00
51559;DHT22;61650;48.882;2.092;2022-12-18T12:31:55;-1.00;74.60
51559;DHT22;61650;48.882;2.092;2022-12-18T12:34:30;-1.00;76.80
51559;DHT22;61650;48.882;2.092;2022-12-18T12:39:38;-0.90;72.80
51559;DHT22;61650;48.882;2.092;2022-12-18T12:45:29;-0.80;75.50
51559;DHT22;61650;48.882;2.092;2022-12-18T12:47:59;-0.70;77.50
51559;DHT22;61650;48.882;2.092;2022-12-18T12:50:40;-0.70;76.60
51559;DHT22;61650;48.882;2.092;2022-12-18T12:53:34;-0.70;77.00
51559;DHT22;61650;48.882;2.092;2022-12-18T12:56:01;-0.60;77.30
51559;DHT22;61650;48.882;2.092;2022-12-18T13:01:36;-0.50;77.40
51559;DHT22;61650;48.882;2.092;2022-12-18T13:07:02;-0.50;77.60
51559;DHT22;61650;48.882;2.092;2022-12-18T13:09:33;-0.50;77.90
51559;DHT22;61650;48.882;2.092;2022-12-18T13:12:08;-0.50;72.70
51559;DHT22;61650;48.882;2.092;2022-12-18T13:15:12;-0.50;72.10
51559;DHT22;61650;48.882;2.092;2022-12-18T13:17:39;-0.50;76.70
51559;DHT22;61650;48.882;2.092;2022-12-18T13:22:38;-0.40;74.80
51559;DHT22;61650;48.882;2.092;2022-12-18T13:28:14;-0.30;75.30
51559;DHT22;61650;48.882;2.092;2022-12-18T13:30:45;-0.40;73.30
51559;DHT22;61650;48.882;2.092;2022-12-18T13:36:00;-0.30;73.20
51559;DHT22;61650;48.882;2.092;2022-12-18T13:38:35;-0.30;73.50
51559;DHT22;61650;48.882;2.092;2022-12-18T13:41:03;-0.30;73.40
51559;DHT22;61650;48.882;2.092;2022-12-18T13:43:49;-0.30;72.80
51559;DHT22;61650;48.882;2.092;2022-12-18T13:46:27;-0.30;73.90
51559;DHT22;61650;48.882;2.092;2022-12-18T13:51:25;-0.20;75.60
51559;DHT22;61650;48.882;2.092;2022-12-18T13:53:58;-0.20;72.60
51559;DHT22;61650;48.882;2.092;2022-12-18T13:56:28;-0.10;76.50
51559;DHT22;61650;48.882;2.092;2022-12-18T13:59:15;-0.10;75.80
51559;DHT22;61650;48.882;2.092;2022-12-18T14:01:58;-0.10;74.80
51559;DHT22;61650;48.882;2.092;2022-12-18T14:04:31;-0.10;75.30
51559;DHT22;61650;48.882;2.092;2022-12-18T14:09:30;-0.10;75.10
51559;DHT22;61650;48.882;2.092;2022-12-18T14:11:57;-0.20;74.30
51559;DHT22;61650;48.882;2.092;2022-12-18T14:14:44;-0.10;74.80
51559;DHT22;61650;48.882;2.092;2022-12-18T14:17:11;-0.10;77.70
51559;DHT22;61650;48.882;2.092;2022-12-18T14:19:41;-0.10;76.70
51559;DHT22;61650;48.882;2.092;2022-12-18T14:22:23;0.00;75.10
51559;DHT22;61650;48.882;2.092;2022-12-18T14:25:26;0.00;77.20
51559;DHT22;61650;48.882;2.092;2022-12-18T14:30:31;0.00;77.50
51559;DHT22;61650;48.882;2.092;2022-12-18T14:35:32;-0.10;78.70
51559;DHT22;61650;48.882;2.092;2022-12-18T14:40:43;-0.20;77.90
51559;DHT22;61650;48.882;2.092;2022-12-18T14:43:12;-0.30;80.80
51559;DHT22;61650;48.882;2.092;2022-12-18T14:45:43;-0.30;79.70
51559;DHT22;61650;48.882;2.092;2022-12-18T14:48:21;-0.30;78.80
51559;DHT22;61650;48.882;2.092;2022-12-18T14:51:00;-0.20;78.90
51559;DHT22;61650;48.882;2.092;2022-12-18T14:53:36;-0.20;78.30
51559;DHT22;61650;48.882;2.092;2022-12-18T14:56:04;-0.20;78.90
51559;DHT22;61650;48.882;2.092;2022-12-18T14:58:37;-0.10;80.00
51559;DHT22;61650;48.882;2.092;2022-12-18T15:01:03;-0.20;79.90
51559;DHT22;61650;48.882;2.092;2022-12-18T15:03:29;-0.20;80.30
51559;DHT22;61650;48.882;2.092;2022-12-18T15:05:54;-0.20;81.30
51559;DHT22;61650;48.882;2.092;2022-12-18T15:08:35;-0.10;81.20
51559;DHT22;61650;48.882;2.092;2022-12-18T15:11:02;-0.20;82.10
51559;DHT22;61650;48.882;2.092;2022-12-18T15:13:27;-0.10;83.30
51559;DHT22;61650;48.882;2.092;2022-12-18T15:15:56;-0.20;83.70
51559;DHT22;61650;48.882;2.092;2022-12-18T15:18:34;-0.20;84.60
51559;DHT22;61650;48.882;2.092;2022-12-18T15:21:08;-0.10;85.30
51559;DHT22;61650;48.882;2.092;2022-12-18T15:23:52;-0.10;86.40
51559;DHT22;61650;48.882;2.092;2022-12-18T15:26:20;-0.20;85.20
51559;DHT22;61650;48.882;2.092;2022-12-18T15:28:56;-0.20;86.50
51559;DHT22;61650;48.882;2.092;2022-12-18T15:36:23;-0.20;86.60
51559;DHT22;61650;48.882;2.092;2022-12-18T15:38:49;-0.20;87.20
51559;DHT22;61650;48.882;2.092;2022-12-18T15:41:18;-0.20;86.50
51559;DHT22;61650;48.882;2.092;2022-12-18T15:43:45;-0.20;87.10
51559;DHT22;61650;48.882;2.092;2022-12-18T15:46:14;-0.20;87.80
51559;DHT22;61650;48.882;2.092;2022-12-18T15:48:45;-0.20;87.70
51559;DHT22;61650;48.882;2.092;2022-12-18T15:53:56;-0.20;85.30
51559;DHT22;61650;48.882;2.092;2022-12-18T15:56:23;-0.30;85.20
51559;DHT22;61650;48.882;2.092;2022-12-18T15:59:18;-0.20;86.30
51559;DHT22;61650;48.882;2.092;2022-12-18T16:01:47;-0.20;85.30
51559;DHT22;61650;48.882;2.092;2022-12-18T16:04:15;-0.20;85.00
51559;DHT22;61650;48.882;2.092;2022-12-18T16:06:41;-0.20;85.60
51559;DHT22;61650;48.882;2.092;2022-12-18T16:09:07;-0.10;86.10
51559;DHT22;61650;48.882;2.092;2022-12-18T16:11:35;0.00;85.30
51559;DHT22;61650;48.882;2.092;2022-12-18T16:16:42;0.10;85.10
51559;DHT22;61650;48.882;2.092;2022-12-18T16:19:08;0.20;86.70
51559;DHT22;61650;48.882;2.092;2022-12-18T16:21:34;0.10;87.30
51559;DHT22;61650;48.882;2.092;2022-12-18T16:23:59;0.10;88.30
51559;DHT22;61650;48.882;2.092;2022-12-18T16:26:25;0.00;89.10
51559;DHT22;61650;48.882;2.092;2022-12-18T16:28:51;0.00;90.30
51559;DHT22;61650;48.882;2.092;2022-12-18T16:31:16;-0.10;90.80
51559;DHT22;61650;48.882;2.092;2022-12-18T16:33:42;-0.10;91.30
51559;DHT22;61650;48.882;2.092;2022-12-18T16:36:08;-0.10;91.90
51559;DHT22;61650;48.882;2.092;2022-12-18T16:38:33;0.00;92.00
51559;DHT22;61650;48.882;2.092;2022-12-18T16:40:59;0.00;92.40
51559;DHT22;61650;48.882;2.092;2022-12-18T16:43:43;0.00;92.30
51559;DHT22;61650;48.882;2.092;2022-12-18T16:46:09;0.00;92.20
51559;DHT22;61650;48.882;2.092;2022-12-18T16:48:34;0.00;92.80
51559;DHT22;61650;48.882;2.092;2022-12-18T16:51:02;0.00;92.80
51559;DHT22;61650;48.882;2.092;2022-12-18T16:53:28;0.00;93.20
51559;DHT22;61650;48.882;2.092;2022-12-18T16:55:54;0.00;93.50
51559;DHT22;61650;48.882;2.092;2022-12-18T16:58:20;0.00;93.50
51559;DHT22;61650;48.882;2.092;2022-12-18T17:00:46;0.00;93.60
51559;DHT22;61650;48.882;2.092;2022-12-18T17:03:11;0.10;93.70
51559;DHT22;61650;48.882;2.092;2022-12-18T17:05:37;0.10;93.70
51559;DHT22;61650;48.882;2.092;2022-12-18T17:08:02;0.10;93.70
51559;DHT22;61650;48.882;2.092;2022-12-18T17:10:28;0.10;94.10
51559;DHT22;61650;48.882;2.092;2022-12-18T17:12:54;0.20;94.30
51559;DHT22;61650;48.882;2.092;2022-12-18T17:15:19;0.20;93.90
51559;DHT22;61650;48.882;2.092;2022-12-18T17:17:45;0.10;93.80
51559;DHT22;61650;48.882;2.092;2022-12-18T17:20:10;0.10;94.10
51559;DHT22;61650;48.882;2.092;2022-12-18T17:22:36;0.10;94.50
51559;DHT22;61650;48.882;2.092;2022-12-18T17:25:02;0.10;94.80
51559;DHT22;61650;48.882;2.092;2022-12-18T17:27:28;0.10;95.00
51559;DHT22;61650;48.882;2.092;2022-12-18T17:29:54;0.10;95.30
51559;DHT22;61650;48.882;2.092;2022-12-18T17:32:19;0.10;95.40
51559;DHT22;61650;48.882;2.092;2022-12-18T17:34:45;0.10;95.70
51559;DHT22;61650;48.882;2.092;2022-12-18T17:37:11;0.10;96.00
51559;DHT22;61650;48.882;2.092;2022-12-18T17:39:37;0.20;96.20